Pismo Beach, CA

6:33 PM PDT on September 16, 2014 (GMT -0700)
Vandenberg AFB | Change Station
CLOSE
Current Station
Airport
Location: Vandenberg AFB,
Elevation: 367 ft
Nearby Weather Stations

Elev 367 ft 34.74 °N, 120.58 °W | Updated 38 minutes ago

Clear
Clear
67 °F
Feels Like 67 °F
N
14
Wind Variable Wind from NNW

Today
High -- | Low -- °F
--% Chance of Precip.
Yesterday
High -- | Low -- °F
Precip. -- in
6:46 AM 7:07 PM
Last Quarter, 40% visible
Pressure 29.80 in
Visibility 10.0 miles
Clouds Clear
Dew Point 60 °F
Humidity 79%
Rainfall 0.00 in
Snow Depth 2 in , 0 in , 0 in
UV 1 out of 12
Pollen 7.60 out of 12
Air Quality Not available.
Flu Activity Not available.
METAR KVBG 170055Z AUTO 33012KT 10SM CLR 19/16 A2982 RMK AO2 SLP089 T01940156 TSNO $

More Conditions Fewer Conditions

Pressure 29.80 in
Visibility 10.0 miles
Clouds Clear
Dew Point 60 °F
Humidity 79%
Rainfall 0.00 in
Snow Depth 2 in , 0 in , 0 in
UV 1 out of 12
Pollen 7.60 out of 12
Air Quality Not available.
Flu Activity Not available.
METAR KVBG 170055Z AUTO 33012KT 10SM CLR 19/16 A2982 RMK AO2 SLP089 T01940156 TSNO $

More Conditions Fewer Conditions

10-Day Weather Forecast

Almanac

Astronomy

Sep. 16, 2014 Rise Set
Actual Time 6:46 AM PDT 7:07 PM PDT
Civil Twilight 6:20 AM PDT 7:33 PM PDT
Nautical Twilight 5:51 AM PDT 8:02 PM PDT
Astronomical Twilight 5:20 AM PDT 8:33 PM PDT
Moon 12:09 AM PDT (9/16) 2:26 PM PDT (9/16)
Length of Visible Light 13h 12m
Length of Day
12h 21m
Tomorrow will be 2m 11s shorter.
Last Quarter, 40% of the Moon is Illuminated
Today
Last Quarter
Sep 24
New
Oct 1
First Quarter
Oct 8
Full
Oct 15
Last Quarter

Today's Extremes

State Highs State Lows

Community

WunderPhotos

Upload Photos

1,753,943 photos uploaded!

Nearby

Snow Depth

Station Depth Elevation
CSS Lab 2 in 6900 ft
Adin Mountain 0 in 6200 ft
Leavitt Meadows 0 in 7200 ft

Earthquake Activity

City Distance Mag. Time & Date
No recent earthquake activity has been reported nearby.
Minimum magnitude displayed is 2.5.

Coastal Water Temperatures

Place Temperature
No Stations Reporting

Nearby Weather Stations